Flight Track Log - Related Links

Times and Time Zones

All times are in EDT time to prevent confusion due to time zone crossing. See the SWA1712 flight status page for this flight to view local times or setup timezone preferences in your user account.

Time Position Orientation Groundspeed Altitude Reporting Facility
EDT Latitude Longitude Course Direction KTS MPH feet Rate Location/Type
Tue 01:38:15 PM 37.6946 -122.1913 294° West  Level FlightAware Approximate
Tue 01:39:21 PM 37.7500 -122.3500 218° Southwest 227 261 5,200  Level Northern Cal TRACON
Tue 01:40:22 PM 37.7000 -122.4000 202° Southwest 262 302 7,600 2,380 Climbing Northern Cal TRACON
Tue 01:41:22 PM 37.6333 -122.4333 173° South 283 326 10,000 2,715 Climbing Northern Cal TRACON
Tue 01:42:39 PM 37.5142 -122.4161 133° Southeast 340 391 13,800 2,715 Climbing Oakland Center
Tue 01:43:39 PM 37.4483 -122.3286 132° Southeast 316 364 16,200 2,350 Climbing Oakland Center
Tue 01:44:39 PM 37.3806 -122.2333 133° Southeast 340 391 18,500 2,300 Climbing Oakland Center
Tue 01:45:39 PM 37.3108 -122.1381 134° Southeast 357 411 20,800 2,200 Climbing Oakland Center
Tue 01:46:39 PM 37.2367 -122.0406 134° Southeast 376 433 22,900 1,950 Climbing Oakland Center
Tue 01:47:39 PM 37.1603 -121.9403 133° Southeast 382 440 24,700 1,650 Climbing Oakland Center
Tue 01:48:39 PM 37.0839 -121.8378 133° Southeast 388 447 26,200 1,550 Climbing Oakland Center
Tue 01:49:39 PM 37.0053 -121.7331 133° Southeast 401 461 27,800 1,600 Climbing Oakland Center
Tue 01:50:39 PM 36.9267 -121.6281 135° Southeast 406 467 29,400 1,550 Climbing Oakland Center
Tue 01:51:39 PM 36.8458 -121.5264 131° Southeast 406 467 30,900 1,250 Climbing Oakland Center
Tue 01:52:39 PM 36.7775 -121.4272 133° Southeast 406 467 31,900 1,150 Climbing Oakland Center
Tue 01:53:39 PM 36.6986 -121.3231 134° Southeast 406 467 33,200 1,250 Climbing Oakland Center
Tue 01:54:39 PM 36.6175 -121.2167 134° Southeast 411 473 34,400 900 Climbing Oakland Center
Tue 01:55:39 PM 36.5361 -121.1131 133° Southeast 411 473 35,000 298 Climbing Oakland Center
Tue 01:56:40 PM 36.4569 -121.0072 135° Southeast 411 473 35,000  Level Oakland Center
Tue 01:57:39 PM 36.3736 -120.9039 134° Southeast 411 473 35,000  Level Oakland Center
Tue 01:58:39 PM 36.2942 -120.8008 134° Southeast 411 473 35,000  Level Oakland Center
Tue 01:59:40 PM 36.2128 -120.6956 135° Southeast 416 479 35,000  Level Oakland Center
Tue 02:00:39 PM 36.1289 -120.5931 133° Southeast 416 479 35,000  Level Oakland Center
Tue 02:01:39 PM 36.0492 -120.4881 133° Southeast 416 479 35,000 -61 Level Oakland Center
Tue 02:02:18 PM 35.9883 -120.4078 134° Southeast 417 480 34,900  Descending Los Angeles Center
Tue 02:03:18 PM 35.9106 -120.3086 134° Southeast 390 449 35,000 50 Climbing Los Angeles Center
Tue 02:04:18 PM 35.8425 -120.2231 135° Southeast 390 449 35,000  Level Los Angeles Center
Tue 02:05:18 PM 35.7603 -120.1217 134° Southeast 401 461 35,000  Level Los Angeles Center
Tue 02:06:18 PM 35.6803 -120.0181 140° Southeast 411 473 35,000  Level Los Angeles Center
Tue 02:07:18 PM 35.5914 -119.9269 145° Southeast 416 479 35,000 -450 Level Los Angeles Center
Tue 02:08:18 PM 35.5019 -119.8514 145° Southeast 409 471 34,100 -950 Descending Los Angeles Center
Tue 02:09:18 PM 35.4103 -119.7733 145° Southeast 404 465 33,100 -1,000 Descending Los Angeles Center
Tue 02:10:18 PM 35.3208 -119.6953 146° Southeast 399 459 32,100 -1,050 Descending Los Angeles Center
Tue 02:11:18 PM 35.2311 -119.6203 144° Southeast 399 459 31,000 -1,000 Descending Los Angeles Center
Tue 02:12:18 PM 35.1436 -119.5428 146° Southeast 393 452 30,100 -950 Descending Los Angeles Center
Tue 02:13:18 PM 35.0539 -119.4681 145° Southeast 393 452 29,100 -950 Descending Los Angeles Center
Tue 02:14:18 PM 34.9619 -119.3908 145° Southeast 393 452 28,200 -950 Descending Los Angeles Center
Tue 02:15:18 PM 34.8703 -119.3114 146° Southeast 398 458 27,200 -950 Descending Los Angeles Center
Tue 02:16:18 PM 34.7803 -119.2369 145° Southeast 398 458 26,300 -1,000 Descending Los Angeles Center
Tue 02:17:18 PM 34.6925 -119.1631 149° Southeast 392 451 25,200 -1,500 Descending Los Angeles Center
Tue 02:18:18 PM 34.5961 -119.0914 144° Southeast 386 444 23,300 -2,050 Descending Los Angeles Center
Tue 02:19:18 PM 34.5144 -119.0203 147° Southeast 381 438 21,100 -2,200 Descending Los Angeles Center
Tue 02:20:18 PM 34.4344 -118.9572 144° Southeast 369 425 18,900 -2,250 Descending Los Angeles Center
Tue 02:21:18 PM 34.3567 -118.8892 163° South 357 411 16,600 -2,250 Descending Los Angeles Center
Tue 02:22:18 PM 34.2697 -118.8561 162° South 340 391 14,400 -2,300 Descending Los Angeles Center
Tue 02:23:18 PM 34.1831 -118.8231 162° South 329 379 12,000 -1,700 Descending Los Angeles Center
Tue 02:24:18 PM 34.1064 -118.7931 153° Southeast 323 372 11,000 -900 Descending Los Angeles Center
Tue 02:25:18 PM 34.0406 -118.7533 100° East 300 345 10,200 -500 Descending Los Angeles Center
Tue 02:26:18 PM 34.0278 -118.6678 95° East 242 278 10,000 -450 Descending Los Angeles Center
Tue 02:27:18 PM 34.0211 -118.5822 95° East 235 270 9,300 -850 Descending Los Angeles Center
Tue 02:28:18 PM 34.0161 -118.5119 92° East 228 262 8,300 -1,150 Descending Los Angeles Center
Tue 02:29:18 PM 34.0136 -118.4342 82° East 217 250 7,000 -900 Descending Los Angeles Center
Tue 02:30:18 PM 34.0211 -118.3694 94° East 212 244 6,500 -1,077 Descending Los Angeles Center
Tue 02:31:15 PM 34.0167 -118.3000 112° Southeast 202 232 4,900 -1,641 Descending Southern California TRACON
Tue 02:32:15 PM 34.0000 -118.2500 231° Southwest 201 231 3,300 -1,488 Descending Southern California TRACON
Tue 02:33:16 PM 33.9667 -118.3000 248° West 180 207 1,900 -1,091 Descending Southern California TRACON
Tue 02:34:16 PM 33.9500 -118.3500 270° West 145 167 1,100 -789 Descending Southern California TRACON
Tue 02:35:10 PM 33.9500 -118.3833 256° West 138 159 400 -492 Descending Southern California TRACON
Tue 02:36:18 PM 33.9383 -118.4397 256° West 133 153 100 -265 Descending Los Angeles Center

Login

Don't have an account? Register now (free) for customized features, flight alerts, and more!